Time;durP1;ratioP1;P1;durP2;ratioP2;P2;SDS_P1;SDS_P2;PMS_P1;PMS_P2;Temp;Humidity;BMP_temperature;BMP_pressure;BME280_temperature;BME280_humidity;BME280_pressure;Samples;Min_cycle;Max_cycle;Signal;HPM_P1;HPM_P2
2022/09/05 00:01:23;;;;;;;;;;;;;;;3.65;83.14;99671.00;4903816;29;20421;-83
2022/09/05 00:04:05;;;;;;;;;;;;;;;3.65;83.45;99671.00;4902550;29;19966;-82
2022/09/05 00:07:06;;;;;;;;;;;;;;;3.69;83.06;99673.09;4888429;29;19938;-80
2022/09/05 00:09:36;;;;;;;;;;;;;;;3.76;82.62;99665.19;4898776;29;20378;-83
2022/09/05 00:12:03;;;;;;;;;;;;;;;3.74;82.30;99669.88;4898967;29;19931;-83
2022/09/05 00:14:40;;;;;;;;;;;;;;;3.72;82.81;99668.41;4898816;29;20489;-81
2022/09/05 00:17:41;;;;;;;;;;;;;;;3.66;83.37;99676.13;4897755;29;19931;-82
2022/09/05 00:20:46;;;;;;;;;;;;;;;3.72;84.12;99676.41;4897816;29;20473;-82
2022/09/05 00:23:40;;;;;;;;;;;;;;;3.74;84.39;99669.88;4917813;29;19938;-83
2022/09/05 00:26:27;;;;;;;;;;;;;;;3.73;84.34;99665.56;4904243;29;19931;-83
2022/09/05 00:29:03;;;;;;;;;;;;;;;3.69;84.32;99662.41;4918284;29;19938;-83
2022/09/05 00:31:44;;;;;;;;;;;;;;;3.67;84.32;99666.28;4905487;29;20012;-83
2022/09/05 00:34:25;;;;;;;;;;;;;;;3.68;84.21;99662.63;4888870;29;20366;-83
2022/09/05 00:37:09;;;;;;;;;;;;;;;3.73;84.38;99657.56;4918625;29;20465;-84
2022/09/05 00:39:40;;;;;;;;;;;;;;;3.82;84.61;99653.78;4886463;29;19935;-83
2022/09/05 00:42:14;;;;;;;;;;;;;;;3.85;84.23;99656.09;4916623;29;19938;-81
2022/09/05 00:44:52;;;;;;;;;;;;;;;3.86;84.22;99649.72;4916004;29;19931;-81
2022/09/05 00:47:35;;;;;;;;;;;;;;;3.84;84.30;99651.75;4916785;29;19931;-82
2022/09/05 00:50:05;;;;;;;;;;;;;;;3.88;84.29;99655.72;4915491;29;19935;-82
2022/09/05 00:52:46;;;;;;;;;;;;;;;3.90;84.30;99652.88;4915045;29;20243;-83
2022/09/05 00:55:36;;;;;;;;;;;;;;;3.92;84.30;99653.47;4917028;29;19938;-83
2022/09/05 00:58:21;;;;;;;;;;;;;;;3.89;84.03;99649.34;4915453;29;19995;-83
2022/09/05 01:00:53;;;;;;;;;;;;;;;3.84;84.17;99646.41;4915656;29;19970;-81
2022/09/05 01:03:20;;;;;;;;;;;;;;;3.82;84.33;99645.78;4915736;29;20311;-82
2022/09/05 01:06:19;;;;;;;;;;;;;;;3.81;84.32;99641.44;4916668;29;19954;-82
2022/09/05 01:09:04;;;;;;;;;;;;;;;3.83;84.45;99650.09;4906013;29;20021;-82
2022/09/05 01:11:36;;;;;;;;;;;;;;;3.79;84.31;99635.44;4917939;29;19937;-82
2022/09/05 01:14:12;;;;;;;;;;;;;;;3.78;84.58;99639.16;4916752;29;19975;-83
2022/09/05 01:16:58;;;;;;;;;;;;;;;3.79;84.36;99634.63;4899441;29;19931;-83
2022/09/05 01:19:31;;;;;;;;;;;;;;;3.80;84.37;99641.59;4927278;29;19931;-83
2022/09/05 01:21:58;;;;;;;;;;;;;;;3.78;84.50;99636.47;4899842;29;20034;-82
2022/09/05 01:24:24;;;;;;;;;;;;;;;3.73;84.18;99633.53;4916800;29;19933;-83
2022/09/05 01:27:13;;;;;;;;;;;;;;;3.68;84.20;99634.06;4916547;29;19977;-82
2022/09/05 01:29:45;;;;;;;;;;;;;;;3.66;84.52;99629.94;4908247;29;19931;-82
2022/09/05 01:32:17;;;;;;;;;;;;;;;3.65;84.34;99638.97;4914860;29;19931;-83
2022/09/05 01:34:56;;;;;;;;;;;;;;;3.63;84.14;99632.97;4915043;29;19955;-82
2022/09/05 01:37:43;;;;;;;;;;;;;;;3.60;84.38;99628.03;4916161;29;20424;-81
2022/09/05 01:40:15;;;;;;;;;;;;;;;3.54;84.60;99626.06;4915862;29;20039;-81
2022/09/05 01:43:06;;;;;;;;;;;;;;;3.53;84.83;99630.59;4915131;29;20406;-82
2022/09/05 01:45:51;;;;;;;;;;;;;;;3.60;85.61;99628.03;4882633;29;19931;-83
2022/09/05 01:48:24;;;;;;;;;;;;;;;3.60;86.19;99628.84;4915701;29;20314;-82
2022/09/05 01:51:02;;;;;;;;;;;;;;;3.59;86.24;99631.69;4916004;29;20309;-83
2022/09/05 01:53:32;;;;;;;;;;;;;;;3.52;86.44;99631.59;4914755;29;19931;-81
2022/09/05 01:56:04;;;;;;;;;;;;;;;3.59;86.60;99631.69;4899474;29;19931;-82
2022/09/05 01:58:43;;;;;;;;;;;;;;;3.67;86.77;99629.75;4898960;29;19965;-82
2022/09/05 02:01:13;;;;;;;;;;;;;;;3.70;86.72;99623.22;4914307;29;19966;-83
2022/09/05 02:04:07;;;;;;;;;;;;;;;3.73;87.06;99624.69;4914323;29;19931;-82
2022/09/05 02:06:40;;;;;;;;;;;;;;;3.71;87.13;99618.72;4915726;29;20425;-83
2022/09/05 02:09:20;;;;;;;;;;;;;;;3.72;87.28;99626.50;4915610;29;19938;-80
2022/09/05 02:11:57;;;;;;;;;;;;;;;3.74;87.61;99624.50;4914527;29;19939;-82
2022/09/05 02:14:35;;;;;;;;;;;;;;;3.86;88.10;99619.53;4915751;29;19978;-82
2022/09/05 02:17:06;;;;;;;;;;;;;;;3.87;88.09;99627.38;4898458;29;20295;-82
2022/09/05 02:19:59;;;;;;;;;;;;;;;3.87;88.19;99626.50;4898811;29;19938;-83
2022/09/05 02:22:27;;;;;;;;;;;;;;;3.90;88.74;99629.66;4915826;29;20398;-83
2022/09/05 02:25:06;;;;;;;;;;;;;;;3.91;88.72;99631.28;4914829;29;19986;-83
2022/09/05 02:27:54;;;;;;;;;;;;;;;3.90;89.06;99632.31;4914614;29;19931;-82
2022/09/05 02:30:36;;;;;;;;;;;;;;;3.89;89.27;99645.84;4914648;29;20474;-83
2022/09/05 02:33:22;;;;;;;;;;;;;;;3.84;89.33;99642.91;4914431;29;19938;-82
2022/09/05 02:36:07;;;;;;;;;;;;;;;3.81;89.35;99641.44;4914708;29;20025;-83
2022/09/05 02:38:37;;;;;;;;;;;;;;;3.71;89.44;99638.22;4914395;29;19985;-83
2022/09/05 02:41:36;;;;;;;;;;;;;;;3.65;89.60;99645.13;4915454;29;19931;-83
2022/09/05 02:44:26;;;;;;;;;;;;;;;3.67;89.63;99647.59;4914580;29;19931;-84
2022/09/05 02:47:13;;;;;;;;;;;;;;;3.73;89.74;99646.06;4914568;29;19970;-84
2022/09/05 02:49:59;;;;;;;;;;;;;;;3.70;89.63;99652.59;4914257;29;19938;-83
2022/09/05 02:52:49;;;;;;;;;;;;;;;3.75;89.88;99649.34;4915447;29;19963;-83
2022/09/05 02:55:39;;;;;;;;;;;;;;;3.68;89.97;99642.09;4915445;29;20445;-83
2022/09/05 02:58:31;;;;;;;;;;;;;;;3.58;90.06;99652.22;4915339;29;20011;-84
2022/09/05 03:01:18;;;;;;;;;;;;;;;3.48;90.25;99648.97;4914216;29;19937;-82
2022/09/05 03:03:47;;;;;;;;;;;;;;;3.42;90.18;99647.88;4915418;29;19931;-83
2022/09/05 03:06:14;;;;;;;;;;;;;;;3.41;90.31;99642.72;4914025;29;19931;-83
2022/09/05 03:09:01;;;;;;;;;;;;;;;3.42;90.26;99647.06;4925934;29;19931;-83
2022/09/05 03:12:01;;;;;;;;;;;;;;;3.48;90.19;99632.97;4915657;29;19935;-84
2022/09/05 03:15:07;;;;;;;;;;;;;;;3.53;89.90;99645.78;4915552;29;19931;-83
2022/09/05 03:18:04;;;;;;;;;;;;;;;3.61;89.49;99643.84;4918169;29;19935;-84
2022/09/05 03:20:56;;;;;;;;;;;;;;;3.75;89.41;99642.19;4900659;29;20430;-84
2022/09/05 03:23:41;;;;;;;;;;;;;;;3.88;89.15;99647.69;4916714;29;19953;-82
2022/09/05 03:26:07;;;;;;;;;;;;;;;4.01;89.01;99643.53;4916353;29;20029;-84
2022/09/05 03:28:34;;;;;;;;;;;;;;;4.18;88.92;99646.81;4916405;29;20029;-84
2022/09/05 03:31:09;;;;;;;;;;;;;;;4.37;88.60;99645.41;4916100;29;19934;-83
2022/09/05 03:33:55;;;;;;;;;;;;;;;4.53;88.20;99638.00;4902075;29;19931;-82
2022/09/05 03:36:28;;;;;;;;;;;;;;;4.60;87.75;99642.56;4884615;29;19966;-83
2022/09/05 03:39:12;;;;;;;;;;;;;;;4.67;87.39;99635.44;4916057;29;19931;-83
2022/09/05 03:41:39;;;;;;;;;;;;;;;4.78;87.00;99640.25;4916163;29;20023;-83
2022/09/05 03:44:21;;;;;;;;;;;;;;;4.86;86.95;99639.31;4900047;29;19986;-83
2022/09/05 03:47:03;;;;;;;;;;;;;;;4.90;86.39;99633.38;4915759;29;19966;-84
2022/09/05 03:49:40;;;;;;;;;;;;;;;4.93;86.32;99634.84;4916001;29;19938;-84
2022/09/05 03:52:32;;;;;;;;;;;;;;;4.94;86.16;99641.88;4917503;29;19931;-84
2022/09/05 03:55:38;;;;;;;;;;;;;;;4.92;85.90;99639.38;4916777;29;19966;-84
2022/09/05 03:58:45;;;;;;;;;;;;;;;4.91;85.50;99634.22;4918060;29;19937;-84
2022/09/05 04:01:35;;;;;;;;;;;;;;;4.97;85.48;99641.47;4919382;29;20388;-85
2022/09/05 04:04:36;;;;;;;;;;;;;;;5.05;85.05;99640.50;4901876;29;19938;-83
2022/09/05 04:07:24;;;;;;;;;;;;;;;5.09;85.32;99642.63;4900526;29;20386;-84
2022/09/05 04:10:25;;;;;;;;;;;;;;;5.19;85.03;99637.75;4916617;29;19934;-82
2022/09/05 04:13:16;;;;;;;;;;;;;;;5.28;84.96;99640.28;4916400;29;20033;-84
2022/09/05 04:15:50;;;;;;;;;;;;;;;5.33;84.83;99648.56;4914815;29;19931;-84
2022/09/05 04:18:22;;;;;;;;;;;;;;;5.39;84.41;99645.09;4916169;29;20386;-84
2022/09/05 04:21:04;;;;;;;;;;;;;;;5.44;84.46;99645.34;4915763;29;19975;-83
2022/09/05 04:23:33;;;;;;;;;;;;;;;5.43;84.30;99643.69;4917426;29;20017;-84
2022/09/05 04:26:00;;;;;;;;;;;;;;;5.45;84.37;99638.16;4916197;29;20350;-82
2022/09/05 04:28:45;;;;;;;;;;;;;;;5.50;84.10;99641.88;4884831;29;19934;-84
2022/09/05 04:31:37;;;;;;;;;;;;;;;5.56;83.92;99632.25;4917944;29;19942;-85
2022/09/05 04:34:18;;;;;;;;;;;;;;;5.59;83.86;99638.00;4919592;29;19931;-83
2022/09/05 04:36:46;;;;;;;;;;;;;;;5.65;83.81;99628.38;4916826;29;19931;-83
2022/09/05 04:39:16;;;;;;;;;;;;;;;5.69;83.65;99632.31;4916797;29;19931;-84
2022/09/05 04:41:47;;;;;;;;;;;;;;;5.73;83.36;99633.56;4900140;29;19974;-84
2022/09/05 04:44:15;;;;;;;;;;;;;;;5.75;83.13;99633.41;4913422;29;19986;-85
2022/09/05 04:46:49;;;;;;;;;;;;;;;5.78;83.01;99633.00;4897520;29;19939;-84
2022/09/05 04:49:37;;;;;;;;;;;;;;;5.80;83.02;99633.63;4897414;29;20319;-86
2022/09/05 04:52:20;;;;;;;;;;;;;;;5.86;82.87;99635.50;4909015;29;19938;-83
2022/09/05 04:55:00;;;;;;;;;;;;;;;5.86;82.67;99638.19;4903861;29;19954;-82
2022/09/05 04:57:44;;;;;;;;;;;;;;;5.88;82.73;99636.13;4649931;29;10000461;-84
2022/09/05 05:00:12;;;;;;;;;;;;;;;5.93;82.80;99636.38;4912190;29;20317;-85
2022/09/05 05:03:03;;;;;;;;;;;;;;;6.01;82.56;99635.41;4906353;29;20416;-84
2022/09/05 05:05:52;;;;;;;;;;;;;;;6.03;82.36;99639.53;4913268;29;19931;-84
2022/09/05 05:08:48;;;;;;;;;;;;;;;6.07;82.25;99626.53;4913237;29;19931;-85
2022/09/05 05:11:19;;;;;;;;;;;;;;;6.11;82.02;99629.66;4917158;29;19938;-82
2022/09/05 05:14:15;;;;;;;;;;;;;;;6.21;82.28;99630.13;4895274;29;19960;-84
2022/09/05 05:17:22;;;;;;;;;;;;;;;6.33;81.61;99627.66;4897085;29;19935;-85
2022/09/05 05:20:09;;;;;;;;;;;;;;;6.42;81.42;99634.50;4880560;29;19937;-85
2022/09/05 05:22:59;;;;;;;;;;;;;;;6.45;80.93;99626.06;4897698;29;19938;-83
2022/09/05 05:25:41;;;;;;;;;;;;;;;6.53;80.70;99628.53;4897973;29;19938;-84
2022/09/05 05:28:10;;;;;;;;;;;;;;;6.69;80.56;99635.41;4897084;29;20391;-85
2022/09/05 05:31:06;;;;;;;;;;;;;;;6.79;80.06;99637.69;4897091;29;19983;-85
2022/09/05 05:33:34;;;;;;;;;;;;;;;6.87;79.80;99635.63;4887012;29;20363;-82
2022/09/05 05:36:01;;;;;;;;;;;;;;;6.94;79.52;99633.78;4897673;29;20403;-84
2022/09/05 05:39:09;;;;;;;;;;;;;;;7.12;79.32;99637.72;4909564;29;20030;-83
2022/09/05 05:41:43;;;;;;;;;;;;;;;7.33;78.67;99636.66;4889739;29;19938;-82
2022/09/05 05:44:16;;;;;;;;;;;;;;;7.40;78.05;99631.31;4890255;29;20029;-84
2022/09/05 05:46:45;;;;;;;;;;;;;;;7.47;77.67;99634.78;4891321;29;20417;-86
2022/09/05 05:49:23;;;;;;;;;;;;;;;7.52;77.34;99629.59;4890831;29;20256;-83
2022/09/05 05:52:12;;;;;;;;;;;;;;;7.61;77.29;99633.72;4872137;29;19931;-83
2022/09/05 05:54:52;;;;;;;;;;;;;;;7.82;76.71;99633.50;4890674;29;19931;-84
2022/09/05 05:57:40;;;;;;;;;;;;;;;8.02;76.25;99638.78;4879919;29;19948;-83
2022/09/05 06:00:20;;;;;;;;;;;;;;;8.15;75.77;99642.44;4888776;29;19931;-83
2022/09/05 06:03:01;;;;;;;;;;;;;;;8.32;75.46;99643.63;4890453;29;19992;-83
2022/09/05 06:06:09;;;;;;;;;;;;;;;8.50;74.81;99642.13;4890602;29;19931;-82
2022/09/05 06:08:36;;;;;;;;;;;;;;;8.60;74.83;99640.59;4875434;29;19979;-83
2022/09/05 06:11:44;;;;;;;;;;;;;;;8.57;74.17;99641.03;4889563;29;19931;-84
2022/09/05 06:14:37;;;;;;;;;;;;;;;8.65;74.02;99643.47;4909967;29;19931;-81
2022/09/05 06:17:36;;;;;;;;;;;;;;;8.59;73.76;99638.16;4884052;29;19931;-85
2022/09/05 06:20:27;;;;;;;;;;;;;;;8.65;73.83;99646.16;4904449;29;20042;-83
2022/09/05 06:23:29;;;;;;;;;;;;;;;8.85;73.64;99648.72;4892653;29;19931;-83
2022/09/05 06:26:11;;;;;;;;;;;;;;;9.05;72.71;99642.38;4908216;29;19970;-84
2022/09/05 06:28:42;;;;;;;;;;;;;;;9.14;72.27;99646.47;4911388;29;20009;-83
2022/09/05 06:31:26;;;;;;;;;;;;;;;9.23;71.81;99645.13;4879174;29;19935;-84
2022/09/05 06:34:09;;;;;;;;;;;;;;;9.45;70.98;99640.19;4895003;29;20314;-83
2022/09/05 06:37:16;;;;;;;;;;;;;;;9.68;70.44;99652.19;4912298;29;19935;-84
2022/09/05 06:39:49;;;;;;;;;;;;;;;9.85;69.75;99653.25;4912702;29;19974;-84
2022/09/05 06:42:19;;;;;;;;;;;;;;;9.98;69.62;99645.03;4912911;29;19931;-84
2022/09/05 06:45:14;;;;;;;;;;;;;;;9.92;68.98;99645.91;4913040;29;19931;-85
2022/09/05 06:48:03;;;;;;;;;;;;;;;9.71;68.92;99646.34;4892928;29;19936;-83
2022/09/05 06:50:44;;;;;;;;;;;;;;;9.68;69.54;99649.50;4913240;29;19931;-82
2022/09/05 06:53:42;;;;;;;;;;;;;;;9.72;68.92;99651.53;4918026;29;19987;-82
2022/09/05 06:56:12;;;;;;;;;;;;;;;9.58;68.56;99650.00;4917100;29;19938;-84
2022/09/05 06:59:10;;;;;;;;;;;;;;;9.46;68.83;99651.78;4917866;29;20021;-82
2022/09/05 07:01:54;;;;;;;;;;;;;;;9.58;68.40;99650.00;4917938;29;19961;-83
2022/09/05 07:04:47;;;;;;;;;;;;;;;9.69;67.54;99656.53;4917960;29;20314;-83
2022/09/05 07:07:34;;;;;;;;;;;;;;;9.88;67.68;99652.00;4908585;29;19943;-83
2022/09/05 07:10:12;;;;;;;;;;;;;;;10.14;66.93;99648.97;4908145;29;19937;-83
2022/09/05 07:13:09;;;;;;;;;;;;;;;10.39;66.08;99642.69;4915530;29;21488;-83
2022/09/05 07:15:56;;;;;;;;;;;;;;;10.62;64.86;99652.75;4914617;29;19973;-84
2022/09/05 07:18:38;;;;;;;;;;;;;;;10.70;64.34;99648.91;4900504;29;20292;-82
2022/09/05 07:21:12;;;;;;;;;;;;;;;10.86;64.31;99642.84;4895103;29;19931;-82
2022/09/05 07:24:12;;;;;;;;;;;;;;;10.79;63.48;99648.38;4888872;29;19939;-83
2022/09/05 07:26:48;;;;;;;;;;;;;;;11.03;63.01;99643.00;4898198;29;20022;-84
2022/09/05 07:29:46;;;;;;;;;;;;;;;11.04;62.41;99637.41;4893472;29;19932;-84
2022/09/05 07:32:30;;;;;;;;;;;;;;;11.00;61.59;99660.50;4885545;29;19979;-83
2022/09/05 07:34:57;;;;;;;;;;;;;;;11.18;61.39;99646.09;4889784;29;19939;-83
2022/09/05 07:37:37;;;;;;;;;;;;;;;11.48;61.00;99654.13;4891569;29;20009;-83
2022/09/05 07:40:08;;;;;;;;;;;;;;;11.56;60.21;99647.53;4896329;29;20418;-85
2022/09/05 07:42:52;;;;;;;;;;;;;;;11.75;60.14;99640.13;4895433;29;19983;-82
2022/09/05 07:45:42;;;;;;;;;;;;;;;12.07;59.73;99637.84;4896047;29;20033;-82
2022/09/05 07:48:26;;;;;;;;;;;;;;;12.00;59.48;99644.47;4892069;29;19931;-83
2022/09/05 07:51:02;;;;;;;;;;;;;;;11.99;59.48;99640.13;4894531;29;20209;-83
2022/09/05 07:54:00;;;;;;;;;;;;;;;11.85;59.12;99636.81;4883567;29;20351;-82
2022/09/05 07:56:47;;;;;;;;;;;;;;;12.07;58.80;99643.25;4896528;29;20034;-83
2022/09/05 07:59:35;;;;;;;;;;;;;;;12.10;58.04;99641.97;4865174;29;20342;-80
2022/09/05 08:02:02;;;;;;;;;;;;;;;12.20;57.97;99635.94;4891068;29;20290;-82
2022/09/05 08:04:30;;;;;;;;;;;;;;;12.26;58.24;99643.94;4883143;29;19978;-82
2022/09/05 08:06:59;;;;;;;;;;;;;;;12.26;57.38;99643.94;4880927;29;19932;-80
2022/09/05 08:09:46;;;;;;;;;;;;;;;12.07;57.85;99640.56;4892949;29;20430;-85
2022/09/05 08:12:40;;;;;;;;;;;;;;;12.00;57.43;99634.47;4890513;29;19931;-85
2022/09/05 08:15:28;;;;;;;;;;;;;;;11.84;57.94;99637.88;4885206;29;20334;-86
2022/09/05 08:18:33;;;;;;;;;;;;;;;12.12;56.78;99629.84;4880062;29;20034;-85
2022/09/05 08:21:02;;;;;;;;;;;;;;;12.44;55.19;99624.00;4896905;29;20410;-84
2022/09/05 08:23:49;;;;;;;;;;;;;;;12.13;55.80;99630.69;4884468;29;19931;-83
2022/09/05 08:26:28;;;;;;;;;;;;;;;11.89;56.21;99627.19;4916777;29;19939;-83
2022/09/05 08:29:07;;;;;;;;;;;;;;;11.56;57.39;99630.50;4915297;29;20029;-82
2022/09/05 08:31:37;;;;;;;;;;;;;;;11.39;57.40;99628.47;4898221;29;20069;-82
2022/09/05 08:34:10;;;;;;;;;;;;;;;11.32;57.41;99624.25;4897137;29;19937;-82
2022/09/05 08:36:45;;;;;;;;;;;;;;;11.31;57.72;99614.50;4910361;29;19937;-82
2022/09/05 08:39:14;;;;;;;;;;;;;;;11.48;57.39;99623.56;4903011;29;19975;-82
2022/09/05 08:41:46;;;;;;;;;;;;;;;11.56;56.95;99620.50;4916810;29;19938;-82
2022/09/05 08:44:30;;;;;;;;;;;;;;;11.43;56.42;99626.16;4927722;29;19935;-82
2022/09/05 08:47:20;;;;;;;;;;;;;;;11.44;56.43;99615.13;4917274;29;19956;-83
2022/09/05 08:50:17;;;;;;;;;;;;;;;11.93;55.85;99622.97;4902309;29;19941;-81
2022/09/05 08:52:44;;;;;;;;;;;;;;;12.28;53.98;99625.59;4878216;29;20378;-82
2022/09/05 08:55:14;;;;;;;;;;;;;;;12.50;53.42;99620.31;4875560;29;20375;-81
2022/09/05 08:57:45;;;;;;;;;;;;;;;12.63;52.92;99623.78;4844771;29;20346;-83
2022/09/05 09:00:18;;;;;;;;;;;;;;;12.70;52.62;99609.03;4871367;29;20040;-83
2022/09/05 09:02:53;;;;;;;;;;;;;;;12.36;53.00;99613.56;4861277;29;19974;-82
2022/09/05 09:05:20;;;;;;;;;;;;;;;12.40;52.91;99616.59;4874286;29;20022;-82
2022/09/05 09:07:54;;;;;;;;;;;;;;;12.27;52.83;99613.09;4869032;29;19964;-84
2022/09/05 09:10:25;;;;;;;;;;;;;;;12.64;52.31;99612.72;4870867;29;19939;-84
2022/09/05 09:12:52;;;;;;;;;;;;;;;12.64;50.76;99604.59;4875990;29;19932;-84
2022/09/05 09:15:19;;;;;;;;;;;;;;;12.43;51.30;99608.81;4876785;29;19931;-82
2022/09/05 09:17:46;;;;;;;;;;;;;;;12.07;52.03;99610.81;4882244;29;20360;-84
2022/09/05 09:20:35;;;;;;;;;;;;;;;11.89;52.28;99610.97;4882747;29;19936;-83
2022/09/05 09:23:02;;;;;;;;;;;;;;;11.56;53.17;99609.69;4843272;29;20356;-82
2022/09/05 09:25:38;;;;;;;;;;;;;;;11.39;52.58;99598.75;4857729;29;20063;-83
2022/09/05 09:28:11;;;;;;;;;;;;;;;11.34;53.96;99611.31;4858886;29;20026;-82
2022/09/05 09:31:05;;;;;;;;;;;;;;;11.35;54.43;99594.91;4879175;29;19932;-83
2022/09/05 09:33:39;;;;;;;;;;;;;;;11.21;53.90;99602.38;4877750;29;20470;-82
2022/09/05 09:36:24;;;;;;;;;;;;;;;11.24;54.26;99601.09;4878854;29;19970;-84
2022/09/05 09:38:51;;;;;;;;;;;;;;;11.24;54.21;99601.09;4879105;29;19938;-82
2022/09/05 09:41:28;;;;;;;;;;;;;;;11.19;54.22;99593.72;4878587;29;19932;-85
2022/09/05 09:43:57;;;;;;;;;;;;;;;11.19;54.60;99598.28;4877247;29;19984;-84
2022/09/05 09:46:37;;;;;;;;;;;;;;;11.31;54.26;99601.00;4878080;29;19931;-84
2022/09/05 09:49:24;;;;;;;;;;;;;;;11.51;54.13;99596.06;4878311;29;20455;-84
2022/09/05 09:51:51;;;;;;;;;;;;;;;11.63;53.30;99594.16;4891786;29;19938;-81
2022/09/05 09:54:18;;;;;;;;;;;;;;;11.87;53.24;99594.16;4896131;29;20018;-82
2022/09/05 09:57:03;;;;;;;;;;;;;;;12.12;52.35;99586.56;4881871;29;20493;-82
2022/09/05 10:00:13;;;;;;;;;;;;;;;12.39;51.51;99583.28;4859458;29;19935;-81
2022/09/05 10:02:40;;;;;;;;;;;;;;;12.54;50.85;99594.41;4895669;29;20336;-82
2022/09/05 10:05:46;;;;;;;;;;;;;;;12.55;50.60;99589.78;4893267;29;20034;-82
2022/09/05 10:08:33;;;;;;;;;;;;;;;12.71;50.10;99582.75;4877093;29;20410;-81
2022/09/05 10:11:35;;;;;;;;;;;;;;;12.41;50.42;99578.47;4900750;29;19931;-85
2022/09/05 10:14:21;;;;;;;;;;;;;;;12.16;50.76;99589.63;4895694;29;19931;-81
2022/09/05 10:17:24;;;;;;;;;;;;;;;11.82;51.68;99580.50;4891216;29;19974;-84
2022/09/05 10:20:04;;;;;;;;;;;;;;;11.59;52.19;99579.47;4555594;29;10000411;-83
2022/09/05 10:22:42;;;;;;;;;;;;;;;11.38;53.04;99577.38;4909291;29;20279;-82
2022/09/05 10:25:28;;;;;;;;;;;;;;;11.23;53.58;99570.56;4913203;29;19931;-82
2022/09/05 10:28:15;;;;;;;;;;;;;;;11.36;53.66;99577.59;4915682;29;19934;-81
2022/09/05 10:30:42;;;;;;;;;;;;;;;11.36;53.75;99582.19;4898483;29;19979;-80
2022/09/05 10:33:42;;;;;;;;;;;;;;;11.40;53.86;99577.97;4917278;29;20750;-82
2022/09/05 10:36:30;;;;;;;;;;;;;;;11.49;53.94;99580.09;4916309;29;20396;-83
2022/09/05 10:39:06;;;;;;;;;;;;;;;11.38;54.02;99582.78;4902536;29;20461;-84
2022/09/05 10:41:52;;;;;;;;;;;;;;;11.42;54.38;99575.84;4899436;29;20003;-83
2022/09/05 10:44:33;;;;;;;;;;;;;;;11.54;54.32;99573.94;4895569;29;19931;-83
2022/09/05 10:47:19;;;;;;;;;;;;;;;11.67;54.24;99573.72;4903332;29;19975;-81
2022/09/05 10:49:49;;;;;;;;;;;;;;;11.60;54.60;99572.22;4919818;29;19953;-83
2022/09/05 10:52:21;;;;;;;;;;;;;;;11.58;54.65;99568.91;4902201;29;19995;-82
2022/09/05 10:55:08;;;;;;;;;;;;;;;11.43;55.11;99572.91;4903968;29;19935;-82
2022/09/05 10:57:57;;;;;;;;;;;;;;;11.37;55.64;99565.75;4904263;29;20322;-83
2022/09/05 11:00:32;;;;;;;;;;;;;;;11.35;56.12;99569.75;4901430;29;19935;-83
2022/09/05 11:03:21;;;;;;;;;;;;;;;11.85;55.42;99563.78;4904555;29;19939;-82
2022/09/05 11:05:56;;;;;;;;;;;;;;;12.32;54.38;99566.38;4918605;29;19938;-83
2022/09/05 11:08:23;;;;;;;;;;;;;;;12.71;53.52;99559.22;4917534;29;19931;-82
2022/09/05 11:10:51;;;;;;;;;;;;;;;13.10;52.99;99555.78;4917138;29;19931;-81
2022/09/05 11:13:40;;;;;;;;;;;;;;;12.96;51.56;99556.13;4900653;29;20457;-82
2022/09/05 11:16:11;;;;;;;;;;;;;;;12.74;52.04;99558.72;4900940;29;19931;-82
2022/09/05 11:18:48;;;;;;;;;;;;;;;12.49;52.66;99553.69;4916674;29;19959;-82
2022/09/05 11:21:29;;;;;;;;;;;;;;;12.52;52.86;99542.38;4914075;29;20531;-81
2022/09/05 11:23:59;;;;;;;;;;;;;;;12.35;52.94;99544.22;4916627;29;20414;-83
2022/09/05 11:26:35;;;;;;;;;;;;;;;12.06;53.95;99541.53;4900633;29;19931;-82
2022/09/05 11:29:04;;;;;;;;;;;;;;;11.95;54.42;99537.00;4919161;29;19937;-84
2022/09/05 11:31:51;;;;;;;;;;;;;;;12.13;54.34;99542.22;4900774;29;19931;-84
2022/09/05 11:34:38;;;;;;;;;;;;;;;12.14;54.48;99535.72;4903720;29;20279;-82
2022/09/05 11:37:25;;;;;;;;;;;;;;;12.23;54.57;99532.63;4910856;29;19954;-81
2022/09/05 11:40:30;;;;;;;;;;;;;;;11.98;55.39;99525.69;4918215;29;20034;-82
2022/09/05 11:43:36;;;;;;;;;;;;;;;11.68;56.43;99537.50;4917938;29;20029;-82
2022/09/05 11:46:03;;;;;;;;;;;;;;;11.68;56.58;99540.19;4917840;29;19998;-84
2022/09/05 11:48:42;;;;;;;;;;;;;;;11.63;57.11;99540.09;4916252;29;19997;-82
2022/09/05 11:51:38;;;;;;;;;;;;;;;11.39;59.36;99543.88;4917497;29;19937;-83
2022/09/05 11:54:25;;;;;;;;;;;;;;;11.02;61.12;99549.56;4917001;29;19935;-84
2022/09/05 11:56:52;;;;;;;;;;;;;;;10.85;62.54;99542.13;4915233;29;19932;-84
2022/09/05 11:59:51;;;;;;;;;;;;;;;10.91;62.66;99548.47;4915189;29;19983;-83
2022/09/05 12:02:39;;;;;;;;;;;;;;;11.18;62.01;99534.50;4915614;29;20372;-82
2022/09/05 12:05:24;;;;;;;;;;;;;;;11.28;61.83;99529.34;4916877;29;19935;-83
2022/09/05 12:08:20;;;;;;;;;;;;;;;11.33;61.64;99529.44;4912970;29;19931;-85
2022/09/05 12:10:57;;;;;;;;;;;;;;;11.54;61.95;99529.88;4900271;29;20298;-83
2022/09/05 12:13:31;;;;;;;;;;;;;;;11.60;62.05;99529.78;4901409;29;20313;-80
2022/09/05 12:16:00;;;;;;;;;;;;;;;11.67;62.18;99532.31;4900834;29;19974;-82
2022/09/05 12:18:54;;;;;;;;;;;;;;;11.59;62.69;99522.69;4918209;29;19935;-84
2022/09/05 12:21:47;;;;;;;;;;;;;;;11.49;63.45;99520.63;4914729;29;19962;-83
2022/09/05 12:24:26;;;;;;;;;;;;;;;11.38;64.33;99512.53;4916524;29;19959;-83
2022/09/05 12:27:15;;;;;;;;;;;;;;;11.63;64.13;99518.47;4897529;29;20002;-83
2022/09/05 12:30:05;;;;;;;;;;;;;;;12.52;62.21;99518.00;4915937;29;19931;-83
2022/09/05 12:32:33;;;;;;;;;;;;;;;15.04;56.19;99501.00;4900490;29;20398;-81
2022/09/05 12:35:22;;;;;;;;;;;;;;;15.10;54.55;99502.66;4902570;29;20362;-81
2022/09/05 12:38:18;;;;;;;;;;;;;;;13.60;57.48;99503.38;4913777;29;19931;-82
2022/09/05 12:41:08;;;;;;;;;;;;;;;12.58;60.53;99498.09;4909864;29;20002;-82
2022/09/05 12:43:54;;;;;;;;;;;;;;;12.22;62.34;99491.22;4916297;29;19991;-82
2022/09/05 12:46:45;;;;;;;;;;;;;;;12.39;61.80;99499.38;4912986;29;20014;-82
2022/09/05 12:49:17;;;;;;;;;;;;;;;14.61;56.67;99491.97;4883576;29;20315;-84
2022/09/05 12:51:45;;;;;;;;;;;;;;;15.99;52.17;99497.38;4900218;29;19930;-82
2022/09/05 12:54:24;;;;;;;;;;;;;;;15.80;51.04;99495.16;4917203;29;20466;-82
2022/09/05 12:57:26;;;;;;;;;;;;;;;14.40;53.77;99488.22;4916551;29;19938;-81
2022/09/05 13:00:14;;;;;;;;;;;;;;;12.76;59.09;99494.31;4913579;29;20037;-83
2022/09/05 13:03:02;;;;;;;;;;;;;;;12.21;61.66;99492.31;4896178;29;20117;-82
2022/09/05 13:05:55;;;;;;;;;;;;;;;12.44;61.94;99491.34;4902769;29;20026;-81
2022/09/05 13:08:22;;;;;;;;;;;;;;;12.50;61.03;99489.53;4917090;29;19935;-81
2022/09/05 13:10:53;;;;;;;;;;;;;;;12.31;61.41;99486.25;4917507;29;19994;-82
2022/09/05 13:13:45;;;;;;;;;;;;;;;11.96;62.26;99492.66;4902346;29;20389;-81
2022/09/05 13:16:34;;;;;;;;;;;;;;;11.68;63.82;99494.25;4909917;29;20010;-80
2022/09/05 13:19:06;;;;;;;;;;;;;;;11.49;64.35;99490.06;4899858;29;19938;-83
2022/09/05 13:21:34;;;;;;;;;;;;;;;11.47;64.61;99484.91;4914717;29;20376;-83
2022/09/05 13:24:11;;;;;;;;;;;;;;;11.82;64.63;99488.53;4896749;29;19937;-82
2022/09/05 13:26:43;;;;;;;;;;;;;;;12.22;63.79;99487.69;4883466;29;19931;-81
2022/09/05 13:29:18;;;;;;;;;;;;;;;12.51;62.81;99477.66;4899062;29;19931;-82
2022/09/05 13:31:47;;;;;;;;;;;;;;;12.66;61.28;99474.34;4896218;29;19931;-81
2022/09/05 13:34:40;;;;;;;;;;;;;;;12.98;60.67;99480.00;4915249;29;19974;-81
2022/09/05 13:37:29;;;;;;;;;;;;;;;14.39;57.50;99472.19;4914893;29;19935;-83
2022/09/05 13:40:25;;;;;;;;;;;;;;;14.55;56.30;99475.88;4888632;29;19931;-82
2022/09/05 13:43:03;;;;;;;;;;;;;;;13.98;56.73;99467.19;4899310;29;20374;-81
2022/09/05 13:45:31;;;;;;;;;;;;;;;13.08;59.11;99479.34;4915889;29;19935;-81
2022/09/05 13:48:35;;;;;;;;;;;;;;;12.48;61.54;99470.84;4898490;29;19930;-82
2022/09/05 13:51:34;;;;;;;;;;;;;;;11.88;63.86;99482.22;4874134;29;20010;-83
2022/09/05 13:54:09;;;;;;;;;;;;;;;11.49;66.27;99496.31;4877228;29;19931;-82
2022/09/05 13:56:41;;;;;;;;;;;;;;;10.81;68.74;99505.88;4878283;29;19932;-83
2022/09/05 13:59:10;;;;;;;;;;;;;;;10.15;70.75;99498.75;4877533;29;19931;-82
2022/09/05 14:01:51;;;;;;;;;;;;;;;9.67;72.79;99492.38;4859157;29;19992;-82
2022/09/05 14:05:04;;;;;;;;;;;;;;;9.43;73.30;99494.09;4858548;29;20018;-81
2022/09/05 14:07:43;;;;;;;;;;;;;;;9.31;73.03;99496.69;4838093;29;20039;-81
2022/09/05 14:10:14;;;;;;;;;;;;;;;9.21;73.64;99495.59;4836698;29;19932;-80